createdAt,value
2023-05-27T00:00:40.047Z,101435.78
2023-05-27T00:03:06.380Z,101435.63
2023-05-27T00:05:32.685Z,101434.34
2023-05-27T00:07:58.893Z,101427.50
2023-05-27T00:10:25.087Z,101435.25
2023-05-27T00:12:51.309Z,101433.69
2023-05-27T00:15:17.514Z,101432.91
2023-05-27T00:17:43.745Z,101426.06
2023-05-27T00:20:10.101Z,101432.00
2023-05-27T00:22:36.327Z,101436.50
2023-05-27T00:25:02.535Z,101434.28
2023-05-27T00:27:28.785Z,101431.81
2023-05-27T00:29:55.042Z,101441.25
2023-05-27T00:32:21.416Z,101430.34
2023-05-27T00:34:47.697Z,101430.63
2023-05-27T00:37:13.930Z,101429.16
2023-05-27T00:39:40.122Z,101432.53
2023-05-27T00:42:06.378Z,101434.06
2023-05-27T00:44:32.612Z,101432.72
2023-05-27T00:46:58.922Z,101431.97
2023-05-27T00:49:25.116Z,101429.19
2023-05-27T00:51:51.298Z,101426.19
2023-05-27T00:54:17.556Z,101428.16
2023-05-27T00:56:43.770Z,101427.00
2023-05-27T00:59:09.994Z,101429.47
2023-05-27T01:01:36.246Z,101427.63
2023-05-27T01:04:03.580Z,101423.47
2023-05-27T01:06:29.808Z,101424.78
2023-05-27T01:08:56.050Z,101429.59
2023-05-27T01:11:22.265Z,101422.69
2023-05-27T01:13:48.448Z,101423.69
2023-05-27T01:16:14.651Z,101427.56
2023-05-27T01:18:40.859Z,101426.09
2023-05-27T01:21:07.104Z,101421.91
2023-05-27T01:23:33.286Z,101420.13
2023-05-27T01:26:01.720Z,101398.59
2023-05-27T01:28:27.966Z,101410.78
2023-05-27T01:30:54.151Z,101407.91
2023-05-27T01:33:20.393Z,101410.97
2023-05-27T01:35:46.683Z,101408.19
2023-05-27T01:38:12.924Z,101401.28
2023-05-27T01:40:39.315Z,101398.50
2023-05-27T01:43:05.521Z,101406.00
2023-05-27T01:45:31.746Z,101388.03
2023-05-27T01:47:57.985Z,101391.97
2023-05-27T01:50:24.201Z,101385.38
2023-05-27T01:52:50.368Z,101388.78
2023-05-27T01:55:16.571Z,101385.72
2023-05-27T01:57:42.814Z,101382.84
2023-05-27T02:00:09.052Z,101385.47
2023-05-27T02:02:35.333Z,101370.03
2023-05-27T02:05:01.577Z,101378.63
2023-05-27T02:07:27.854Z,101373.59
2023-05-27T02:09:54.082Z,101376.75
2023-05-27T02:12:20.373Z,101379.72
2023-05-27T02:14:46.656Z,101376.59
2023-05-27T02:17:12.873Z,101382.84
2023-05-27T02:19:39.162Z,101387.75
2023-05-27T02:22:05.380Z,101372.50
2023-05-27T02:24:31.554Z,101383.09
2023-05-27T02:26:57.753Z,101380.63
2023-05-27T02:29:23.968Z,101391.69
2023-05-27T02:31:50.192Z,101387.19
2023-05-27T02:34:16.398Z,101393.28
2023-05-27T02:36:42.878Z,101383.63
2023-05-27T02:39:09.110Z,101389.31
2023-05-27T02:41:35.284Z,101388.81
2023-05-27T02:44:01.505Z,101380.50
2023-05-27T02:46:27.830Z,101390.25
2023-05-27T02:48:54.081Z,101386.84
2023-05-27T02:51:20.260Z,101396.75
2023-05-27T02:53:46.491Z,101387.44
2023-05-27T02:56:12.685Z,101385.94
2023-05-27T02:58:38.858Z,101386.19
2023-05-27T03:01:05.074Z,101374.03
2023-05-27T03:03:31.335Z,101380.94
2023-05-27T03:05:57.599Z,101379.00
2023-05-27T03:08:23.824Z,101375.53
2023-05-27T03:10:49.999Z,101380.06
2023-05-27T03:13:16.232Z,101385.34
2023-05-27T03:15:42.391Z,101380.06
2023-05-27T03:18:08.686Z,101382.66
2023-05-27T03:20:35.016Z,101386.91
2023-05-27T03:23:01.306Z,101394.03
2023-05-27T03:25:27.593Z,101386.53
2023-05-27T03:27:53.805Z,101381.88
2023-05-27T03:30:20.001Z,101383.47
2023-05-27T03:32:46.254Z,101380.97
2023-05-27T03:35:12.576Z,101389.09
2023-05-27T03:37:38.786Z,101393.09
2023-05-27T03:40:05.084Z,101391.63
2023-05-27T03:42:31.306Z,101393.88
2023-05-27T03:44:57.487Z,101376.59
2023-05-27T03:47:23.780Z,101385.53
2023-05-27T03:49:50.018Z,101388.66
2023-05-27T03:52:16.277Z,101388.06
2023-05-27T03:54:42.477Z,101389.28
2023-05-27T03:57:08.728Z,101398.00
2023-05-27T03:59:34.951Z,101404.31
2023-05-27T04:02:01.217Z,101398.34
2023-05-27T04:04:27.526Z,101400.22
2023-05-27T04:06:53.752Z,101399.47
2023-05-27T04:09:19.984Z,101407.44
2023-05-27T04:11:46.207Z,101405.78
2023-05-27T04:14:12.513Z,101404.03
2023-05-27T04:16:38.747Z,101406.72
2023-05-27T04:19:04.970Z,101401.66
2023-05-27T04:21:31.202Z,101405.91
2023-05-27T04:23:57.424Z,101406.66
2023-05-27T04:26:23.627Z,101403.69
2023-05-27T04:28:49.790Z,101406.91
2023-05-27T04:31:16.056Z,101403.97
2023-05-27T04:33:42.302Z,101398.41
2023-05-27T04:36:22.206Z,101411.09
2023-05-27T04:38:48.398Z,101403.16
2023-05-27T04:41:14.624Z,101402.63
2023-05-27T04:43:40.857Z,101400.69
2023-05-27T04:46:07.123Z,101403.97
2023-05-27T04:48:33.440Z,101402.97
2023-05-27T04:50:59.660Z,101390.66
2023-05-27T04:53:25.863Z,101394.84
2023-05-27T04:55:52.126Z,101399.63
2023-05-27T04:58:18.426Z,101400.28
2023-05-27T05:00:44.672Z,101392.31
2023-05-27T05:03:10.982Z,101384.03
2023-05-27T05:05:37.304Z,101387.34
2023-05-27T05:08:04.052Z,101395.84
2023-05-27T05:10:30.254Z,101385.00
2023-05-27T05:12:56.477Z,101384.31
2023-05-27T05:15:22.708Z,101392.25
2023-05-27T05:17:48.940Z,101379.88
2023-05-27T05:20:15.222Z,101389.28
2023-05-27T05:22:41.449Z,101380.19
2023-05-27T05:25:07.654Z,101386.00
2023-05-27T05:27:33.863Z,101388.63
2023-05-27T05:30:00.045Z,101386.50
2023-05-27T05:32:26.357Z,101394.47
2023-05-27T05:34:52.573Z,101392.38
2023-05-27T05:37:18.774Z,101393.41
2023-05-27T05:39:44.975Z,101386.72
2023-05-27T05:42:11.281Z,101391.25
2023-05-27T05:44:37.519Z,101389.25
2023-05-27T05:47:03.753Z,101389.34
2023-05-27T05:49:30.002Z,101388.28
2023-05-27T05:51:56.763Z,101387.91
2023-05-27T05:54:22.941Z,101383.00
2023-05-27T05:56:49.150Z,101387.44
2023-05-27T05:59:15.354Z,101384.41
2023-05-27T06:01:41.592Z,101388.00
2023-05-27T06:04:08.011Z,101391.81
2023-05-27T06:06:34.343Z,101380.16
2023-05-27T06:09:00.572Z,101377.00
2023-05-27T06:11:26.784Z,101385.31
2023-05-27T06:13:53.002Z,101390.59
2023-05-27T06:16:19.424Z,101394.94
2023-05-27T06:18:45.641Z,101385.91
2023-05-27T06:21:11.820Z,101378.47
2023-05-27T06:23:38.051Z,101391.38
2023-05-27T06:26:04.277Z,101379.63
2023-05-27T06:28:30.488Z,101381.16
2023-05-27T06:30:56.736Z,101388.13
2023-05-27T06:33:22.896Z,101382.69
2023-05-27T06:38:32.304Z,101387.56
2023-05-27T06:40:58.535Z,101374.75
2023-05-27T06:43:24.790Z,101379.56
2023-05-27T06:46:03.137Z,101373.97
2023-05-27T06:48:31.634Z,101378.41
2023-05-27T06:50:57.874Z,101374.44
2023-05-27T06:53:24.068Z,101372.59
2023-05-27T06:55:50.258Z,101375.88
2023-05-27T06:58:16.499Z,101371.59
2023-05-27T07:00:42.705Z,101376.91
2023-05-27T07:03:08.932Z,101374.59
2023-05-27T07:05:35.226Z,101372.47
2023-05-27T07:08:01.505Z,101355.72
2023-05-27T07:10:27.740Z,101361.44
2023-05-27T07:12:53.994Z,101357.19
2023-05-27T07:15:20.182Z,101359.63
2023-05-27T07:17:46.476Z,101349.16
2023-05-27T07:20:12.801Z,101357.91
2023-05-27T07:22:39.088Z,101355.59
2023-05-27T07:25:05.368Z,101355.66
2023-05-27T07:27:32.592Z,101352.41
2023-05-27T07:29:58.800Z,101353.50
2023-05-27T07:32:25.099Z,101351.00
2023-05-27T07:34:51.297Z,101354.59
2023-05-27T07:37:17.533Z,101348.22
2023-05-27T07:39:43.858Z,101343.63
2023-05-27T07:42:10.083Z,101347.16
2023-05-27T07:44:36.305Z,101332.97
2023-05-27T07:47:02.637Z,101339.28
2023-05-27T07:49:28.946Z,101334.25
2023-05-27T07:51:55.152Z,101324.72
2023-05-27T07:54:21.320Z,101329.09
2023-05-27T07:56:47.575Z,101320.34
2023-05-27T07:59:13.896Z,101318.88
2023-05-27T08:01:40.330Z,101320.13
2023-05-27T08:04:16.660Z,101315.53
2023-05-27T08:06:50.290Z,101309.09
2023-05-27T08:09:16.524Z,101310.81
2023-05-27T08:11:42.756Z,101309.53
2023-05-27T08:14:08.932Z,101312.66
2023-05-27T08:16:35.181Z,101310.69
2023-05-27T08:19:01.617Z,101305.97
2023-05-27T08:21:27.834Z,101316.53
2023-05-27T08:26:44.118Z,101306.91
2023-05-27T08:29:10.404Z,101304.91
2023-05-27T08:31:36.628Z,101292.50
2023-05-27T08:34:02.951Z,101291.09
2023-05-27T08:36:29.241Z,101286.50
2023-05-27T08:38:55.520Z,101287.63
2023-05-27T08:41:21.735Z,101293.44
2023-05-27T08:43:47.942Z,101289.13
2023-05-27T08:46:14.290Z,101277.78
2023-05-27T08:48:40.584Z,101280.72
2023-05-27T08:51:06.958Z,101275.59
2023-05-27T08:53:33.255Z,101280.25
2023-05-27T08:55:59.604Z,101268.34
2023-05-27T08:58:25.810Z,101268.34
2023-05-27T09:00:52.252Z,101268.56
2023-05-27T09:03:18.667Z,101271.22
2023-05-27T09:05:44.869Z,101273.06
2023-05-27T09:08:11.057Z,101268.53
2023-05-27T09:10:37.342Z,101263.50
2023-05-27T09:13:03.615Z,101257.28
2023-05-27T09:15:29.859Z,101261.16
2023-05-27T09:17:56.058Z,101246.44
2023-05-27T09:20:22.466Z,101250.25
2023-05-27T09:22:48.715Z,101253.09
2023-05-27T09:25:17.987Z,101247.38
2023-05-27T09:27:44.236Z,101248.25
2023-05-27T09:30:10.634Z,101247.63
2023-05-27T09:32:36.945Z,101243.91
2023-05-27T09:35:03.244Z,101252.81
2023-05-27T09:37:29.558Z,101239.69
2023-05-27T09:39:57.907Z,101239.81
2023-05-27T09:42:24.145Z,101238.97
2023-05-27T09:44:50.398Z,101245.41
2023-05-27T09:47:16.753Z,101231.94
2023-05-27T09:49:43.071Z,101238.13
2023-05-27T09:52:09.303Z,101240.25
2023-05-27T09:54:35.492Z,101241.50
2023-05-27T09:57:01.694Z,101230.19
2023-05-27T09:59:27.974Z,101222.34
2023-05-27T10:01:54.294Z,101213.97
2023-05-27T10:04:20.563Z,101221.81
2023-05-27T10:06:46.813Z,101220.06
2023-05-27T10:09:13.118Z,101214.47
2023-05-27T10:11:39.396Z,101217.75
2023-05-27T10:14:05.753Z,101211.88
2023-05-27T10:16:32.065Z,101206.09
2023-05-27T10:18:58.330Z,101207.97
2023-05-27T10:21:24.716Z,101207.38
2023-05-27T10:23:50.976Z,101200.34
2023-05-27T10:26:17.269Z,101199.22
2023-05-27T10:28:43.674Z,101193.28
2023-05-27T10:31:10.011Z,101194.16
2023-05-27T10:33:36.484Z,101200.53
2023-05-27T10:36:02.779Z,101194.72
2023-05-27T10:38:29.032Z,101191.63
2023-05-27T10:40:55.225Z,101188.16
2023-05-27T10:43:21.541Z,101178.59
2023-05-27T10:45:47.769Z,101182.94
2023-05-27T10:48:14.085Z,101175.06
2023-05-27T10:50:40.568Z,101176.50
2023-05-27T10:53:06.810Z,101175.34
2023-05-27T10:55:33.047Z,101165.91
2023-05-27T10:57:59.361Z,101163.38
2023-05-27T11:00:25.657Z,101160.22
2023-05-27T11:02:54.249Z,101156.63
2023-05-27T11:05:20.499Z,101153.47
2023-05-27T11:07:47.961Z,101148.13
2023-05-27T11:10:31.770Z,101142.53
2023-05-27T11:12:58.040Z,101131.53
2023-05-27T11:15:24.523Z,101129.28
2023-05-27T11:17:50.835Z,101127.53
2023-05-27T11:20:17.311Z,101128.13
2023-05-27T11:22:43.600Z,101124.59
2023-05-27T11:25:09.827Z,101120.69
2023-05-27T11:27:36.087Z,101126.41
2023-05-27T11:30:02.352Z,101128.63
2023-05-27T11:32:28.705Z,101132.03
2023-05-27T11:34:55.047Z,101123.78
2023-05-27T11:37:21.258Z,101122.97
2023-05-27T11:39:47.449Z,101097.06
2023-05-27T11:42:13.626Z,101113.50
2023-05-27T11:44:39.895Z,101106.44
2023-05-27T11:47:06.157Z,101108.97
2023-05-27T11:49:32.422Z,101111.53
2023-05-27T11:51:58.694Z,101110.31
2023-05-27T11:54:24.912Z,101101.66
2023-05-27T11:56:51.158Z,101094.75
2023-05-27T11:59:17.536Z,101102.22
2023-05-27T12:01:43.795Z,101092.28
2023-05-27T12:04:10.044Z,101088.06
2023-05-27T12:06:36.313Z,101082.25
2023-05-27T12:09:02.531Z,101076.00
2023-05-27T12:11:28.731Z,101073.19
2023-05-27T12:13:54.959Z,101065.72
2023-05-27T12:16:21.213Z,101066.41
2023-05-27T12:18:47.435Z,101060.16
2023-05-27T12:21:13.712Z,101055.69
2023-05-27T12:23:39.940Z,101048.41
2023-05-27T12:26:06.182Z,101054.06
2023-05-27T12:28:32.674Z,101043.25
2023-05-27T12:30:58.998Z,101044.22
2023-05-27T12:33:25.366Z,101033.00
2023-05-27T12:35:51.783Z,101039.38
2023-05-27T12:38:18.180Z,101036.13
2023-05-27T12:40:44.429Z,101050.88
2023-05-27T12:43:10.693Z,101031.47
2023-05-27T12:45:36.961Z,101022.47
2023-05-27T12:48:03.207Z,101031.84
2023-05-27T12:50:29.523Z,101032.53
2023-05-27T12:52:55.825Z,101027.72
2023-05-27T12:55:22.081Z,101035.25
2023-05-27T12:57:48.273Z,101021.66
2023-05-27T13:00:14.485Z,101011.78
2023-05-27T13:02:40.804Z,101023.34
2023-05-27T13:05:06.984Z,101020.00
2023-05-27T13:07:33.221Z,101007.09
2023-05-27T13:10:01.783Z,101012.97
2023-05-27T13:12:29.478Z,100997.91
2023-05-27T13:14:55.859Z,100992.88
2023-05-27T13:17:22.154Z,100996.22
2023-05-27T13:19:50.698Z,100988.44
2023-05-27T13:22:19.444Z,100991.44
2023-05-27T13:24:45.634Z,100982.91
2023-05-27T13:27:11.880Z,100978.44
2023-05-27T13:29:38.089Z,100975.63
2023-05-27T13:32:04.417Z,100982.13
2023-05-27T13:34:30.586Z,100975.78
2023-05-27T13:36:56.789Z,100969.25
2023-05-27T13:39:22.973Z,100966.41
2023-05-27T13:41:49.155Z,100959.84
2023-05-27T13:47:05.415Z,100961.31
2023-05-27T13:49:31.697Z,100955.94
2023-05-27T13:51:57.929Z,100948.75
2023-05-27T13:54:24.218Z,100947.88
2023-05-27T13:56:50.438Z,100944.03
2023-05-27T13:59:16.652Z,100937.19
2023-05-27T14:01:42.928Z,100938.06
2023-05-27T14:04:09.240Z,100931.28
2023-05-27T14:06:35.504Z,100928.34
2023-05-27T14:09:01.775Z,100919.31
2023-05-27T14:11:27.966Z,100911.88
2023-05-27T14:13:54.132Z,100909.25
2023-05-27T14:16:20.502Z,100909.69
2023-05-27T14:18:46.722Z,100900.53
2023-05-27T14:21:12.967Z,100905.22
2023-05-27T14:23:39.273Z,100896.13
2023-05-27T14:26:05.488Z,100895.47
2023-05-27T14:28:31.788Z,100887.41
2023-05-27T14:30:58.082Z,100890.09
2023-05-27T14:33:24.370Z,100883.38
2023-05-27T14:35:50.861Z,100873.63
2023-05-27T14:38:17.271Z,100875.00
2023-05-27T14:40:46.241Z,100875.13
2023-05-27T14:43:12.527Z,100874.97
2023-05-27T14:45:38.770Z,100865.19
2023-05-27T14:48:05.039Z,100872.38
2023-05-27T14:50:31.303Z,100865.00
2023-05-27T14:52:57.480Z,100870.75
2023-05-27T14:55:23.762Z,100860.75
2023-05-27T14:57:50.068Z,100858.16
2023-05-27T15:00:16.341Z,100863.47
2023-05-27T15:02:42.807Z,100865.88
2023-05-27T15:05:09.106Z,100860.59
2023-05-27T15:07:35.325Z,100860.59
2023-05-27T15:10:01.583Z,100862.91
2023-05-27T15:12:27.804Z,100861.94
2023-05-27T15:14:54.013Z,100856.44
2023-05-27T15:17:20.294Z,100855.63
2023-05-27T15:19:46.696Z,100850.84
2023-05-27T15:22:12.872Z,100858.50
2023-05-27T15:24:39.127Z,100862.13
2023-05-27T15:27:05.471Z,100847.19
2023-05-27T15:29:31.684Z,100853.50
2023-05-27T15:31:57.950Z,100860.56
2023-05-27T15:34:24.324Z,100849.22
2023-05-27T15:36:50.569Z,100839.72
2023-05-27T15:39:16.761Z,100843.25
2023-05-27T15:41:43.002Z,100844.84
2023-05-27T15:44:09.380Z,100835.56
2023-05-27T15:46:35.580Z,100842.69
2023-05-27T15:49:01.847Z,100845.88
2023-05-27T15:51:28.068Z,100836.50
2023-05-27T15:53:54.273Z,100830.53
2023-05-27T15:56:20.562Z,100830.25
2023-05-27T15:58:46.788Z,100827.47
2023-05-27T16:01:13.018Z,100826.97
2023-05-27T16:03:39.282Z,100829.56
2023-05-27T16:06:05.483Z,100827.00
2023-05-27T16:08:31.668Z,100830.94
2023-05-27T16:10:57.918Z,100823.91
2023-05-27T16:13:24.145Z,100819.84
2023-05-27T16:15:51.751Z,100817.59
2023-05-27T16:18:18.164Z,100813.34
2023-05-27T16:20:44.584Z,100809.09
2023-05-27T16:23:12.573Z,100811.94
2023-05-27T16:25:39.345Z,100812.97
2023-05-27T16:28:05.640Z,100805.47
2023-05-27T16:30:31.862Z,100815.56
2023-05-27T16:32:58.137Z,100814.84
2023-05-27T16:35:24.387Z,100809.22
2023-05-27T16:37:50.622Z,100811.03
2023-05-27T16:40:16.854Z,100800.56
2023-05-27T16:42:43.103Z,100807.03
2023-05-27T16:45:09.370Z,100805.72
2023-05-27T16:47:35.742Z,100797.72
2023-05-27T16:50:02.097Z,100800.59
2023-05-27T16:52:28.297Z,100792.78
2023-05-27T16:54:54.569Z,100792.69
2023-05-27T16:57:20.813Z,100804.94
2023-05-27T16:59:47.051Z,100802.25
2023-05-27T17:02:13.440Z,100795.94
2023-05-27T17:04:39.653Z,100804.81
2023-05-27T17:07:05.966Z,100802.03
2023-05-27T17:09:32.192Z,100804.16
2023-05-27T17:11:58.489Z,100801.66
2023-05-27T17:14:24.809Z,100813.16
2023-05-27T17:16:51.061Z,100807.44
2023-05-27T17:19:17.335Z,100800.22
2023-05-27T17:21:43.592Z,100803.00
2023-05-27T17:24:09.842Z,100806.22
2023-05-27T17:26:36.073Z,100797.53
2023-05-27T17:29:02.263Z,100798.31
2023-05-27T17:31:28.692Z,100798.09
2023-05-27T17:33:54.994Z,100800.53
2023-05-27T17:36:21.339Z,100797.78
2023-05-27T17:38:47.587Z,100801.72
2023-05-27T17:41:13.816Z,100809.19
2023-05-27T17:43:40.150Z,100809.94
2023-05-27T17:46:06.374Z,100809.69
2023-05-27T17:48:32.762Z,100813.63
2023-05-27T17:50:59.059Z,100797.41
2023-05-27T17:53:25.307Z,100807.47
2023-05-27T17:55:51.507Z,100809.75
2023-05-27T17:58:17.758Z,100808.50
2023-05-27T18:00:45.096Z,100805.03
2023-05-27T18:03:12.987Z,100803.38
2023-05-27T18:05:39.267Z,100810.13
2023-05-27T18:08:09.486Z,100804.56
2023-05-27T18:10:35.817Z,100810.06
2023-05-27T18:13:02.030Z,100820.28
2023-05-27T18:15:28.218Z,100814.41
2023-05-27T18:17:54.502Z,100814.84
2023-05-27T18:20:20.834Z,100815.28
2023-05-27T18:22:47.236Z,100808.81
2023-05-27T18:25:13.494Z,100809.56
2023-05-27T18:27:39.704Z,100814.56
2023-05-27T18:30:05.993Z,100819.47
2023-05-27T18:32:32.489Z,100821.03
2023-05-27T18:34:58.725Z,100816.25
2023-05-27T18:37:24.960Z,100823.16
2023-05-27T18:39:51.214Z,100825.41
2023-05-27T18:42:17.450Z,100825.81
2023-05-27T18:44:43.670Z,100828.47
2023-05-27T18:47:09.877Z,100823.97
2023-05-27T18:49:36.106Z,100823.66
2023-05-27T18:52:02.324Z,100819.44
2023-05-27T18:54:28.538Z,100821.41
2023-05-27T18:56:54.973Z,100825.72
2023-05-27T18:59:21.212Z,100835.34
2023-05-27T19:01:47.536Z,100829.25
2023-05-27T19:04:13.925Z,100837.34
2023-05-27T19:06:40.159Z,100841.91
2023-05-27T19:09:06.446Z,100852.72
2023-05-27T19:11:32.749Z,100847.91
2023-05-27T19:13:59.030Z,100844.56
2023-05-27T19:16:25.369Z,100845.09
2023-05-27T19:18:51.663Z,100845.63
2023-05-27T19:21:17.893Z,100848.78
2023-05-27T19:23:44.094Z,100851.69
2023-05-27T19:26:10.407Z,100853.75
2023-05-27T19:28:36.764Z,100842.44
2023-05-27T19:31:02.992Z,100841.03
2023-05-27T19:33:29.278Z,100840.44
2023-05-27T19:35:55.512Z,100847.81
2023-05-27T19:38:21.722Z,100856.56
2023-05-27T19:40:47.976Z,100842.00
2023-05-27T19:43:14.166Z,100848.63
2023-05-27T19:45:40.422Z,100853.44
2023-05-27T19:48:06.709Z,100851.44
2023-05-27T19:50:32.936Z,100851.34
2023-05-27T19:52:59.148Z,100847.53
2023-05-27T19:55:25.421Z,100855.72
2023-05-27T19:57:51.722Z,100850.19
2023-05-27T20:00:17.994Z,100852.91
2023-05-27T20:02:44.279Z,100855.69
2023-05-27T20:05:10.694Z,100855.47
2023-05-27T20:07:36.966Z,100853.31
2023-05-27T20:10:03.256Z,100845.22
2023-05-27T20:12:29.563Z,100833.53
2023-05-27T20:14:55.893Z,100844.13
2023-05-27T20:17:22.249Z,100840.91
2023-05-27T20:19:51.102Z,100846.69
2023-05-27T20:22:17.442Z,100848.84
2023-05-27T20:24:43.856Z,100848.00
2023-05-27T20:27:10.115Z,100845.94
2023-05-27T20:29:36.372Z,100843.16
2023-05-27T20:32:07.139Z,100857.97
2023-05-27T20:34:33.617Z,100853.22
2023-05-27T20:36:59.922Z,100854.13
2023-05-27T20:39:26.149Z,100848.06
2023-05-27T20:41:52.419Z,100848.19
2023-05-27T20:44:18.769Z,100856.72
2023-05-27T20:46:45.051Z,100851.88
2023-05-27T20:49:11.347Z,100858.28
2023-05-27T20:51:37.611Z,100850.59
2023-05-27T20:54:06.148Z,100847.44
2023-05-27T20:56:32.425Z,100840.00
2023-05-27T20:58:58.644Z,100843.28
2023-05-27T21:01:24.982Z,100841.84
2023-05-27T21:03:51.362Z,100842.16
2023-05-27T21:06:17.662Z,100839.19
2023-05-27T21:08:43.851Z,100837.31
2023-05-27T21:11:10.095Z,100842.72
2023-05-27T21:13:36.597Z,100840.53
2023-05-27T21:16:02.898Z,100842.78
2023-05-27T21:18:29.274Z,100838.88
2023-05-27T21:20:56.274Z,100840.03
2023-05-27T21:23:25.995Z,100836.16
2023-05-27T21:25:52.486Z,100838.38
2023-05-27T21:28:20.780Z,100826.47
2023-05-27T21:30:47.032Z,100833.34
2023-05-27T21:33:13.341Z,100839.75
2023-05-27T21:35:39.532Z,100841.28
2023-05-27T21:38:05.774Z,100842.84
2023-05-27T21:40:31.973Z,100837.53
2023-05-27T21:42:58.225Z,100836.69
2023-05-27T21:45:24.492Z,100843.31
2023-05-27T21:47:50.870Z,100845.19
2023-05-27T21:50:17.173Z,100836.63
2023-05-27T21:52:43.383Z,100841.63
2023-05-27T21:55:09.645Z,100834.47
2023-05-27T21:57:35.849Z,100840.38
2023-05-27T22:00:02.071Z,100840.09
2023-05-27T22:02:28.437Z,100834.78
2023-05-27T22:04:54.722Z,100838.81
2023-05-27T22:07:20.994Z,100836.66
2023-05-27T22:09:47.274Z,100829.06
2023-05-27T22:12:13.617Z,100836.53
2023-05-27T22:14:39.898Z,100839.50
2023-05-27T22:17:06.144Z,100829.28
2023-05-27T22:19:32.358Z,100838.03
2023-05-27T22:21:58.553Z,100830.34
2023-05-27T22:24:24.757Z,100828.72
2023-05-27T22:26:50.992Z,100829.03
2023-05-27T22:29:17.241Z,100823.25
2023-05-27T22:31:43.530Z,100830.78
2023-05-27T22:34:09.744Z,100823.13
2023-05-27T22:36:36.151Z,100814.00
2023-05-27T22:39:02.523Z,100814.38
2023-05-27T22:41:28.749Z,100808.22
2023-05-27T22:43:54.991Z,100809.28
2023-05-27T22:46:21.256Z,100799.94
2023-05-27T22:48:47.486Z,100811.66
2023-05-27T22:51:13.690Z,100794.91
2023-05-27T22:53:39.867Z,100793.75
2023-05-27T22:56:06.138Z,100801.56
2023-05-27T22:58:32.411Z,100795.84
2023-05-27T23:00:58.597Z,100778.59
2023-05-27T23:03:24.923Z,100790.25
2023-05-27T23:05:51.196Z,100794.94
2023-05-27T23:08:17.390Z,100790.69
2023-05-27T23:10:43.638Z,100802.44
2023-05-27T23:13:09.912Z,100790.78
2023-05-27T23:15:36.114Z,100796.13
2023-05-27T23:18:02.351Z,100790.34
2023-05-27T23:20:28.628Z,100798.34
2023-05-27T23:22:54.867Z,100793.00
2023-05-27T23:25:21.054Z,100799.59
2023-05-27T23:27:49.568Z,100800.34
2023-05-27T23:30:15.809Z,100795.09
2023-05-27T23:32:42.099Z,100793.22
2023-05-27T23:35:08.374Z,100799.63
2023-05-27T23:37:34.595Z,100800.28
2023-05-27T23:40:00.791Z,100800.13
2023-05-27T23:42:26.965Z,100797.41
2023-05-27T23:44:53.207Z,100798.13
2023-05-27T23:47:19.433Z,100796.34
2023-05-27T23:49:45.639Z,100781.09
2023-05-27T23:52:11.854Z,100786.84
2023-05-27T23:54:38.059Z,100786.44
2023-05-27T23:57:04.283Z,100790.19
2023-05-27T23:59:30.466Z,100782.66
